Time;durP1;ratioP1;P1;durP2;ratioP2;P2;SDS_P1;SDS_P2;PMS_P1;PMS_P2;Temp;Humidity;BMP_temperature;BMP_pressure;BME280_temperature;BME280_humidity;BME280_pressure;Samples;Min_cycle;Max_cycle;Signal;HPM_P1;HPM_P2
2022/06/16 00:00:31;;;;;;;2.90;0.80;;;12.70;99.90;;;;;;5015585;28;20392;-80
2022/06/16 00:03:00;;;;;;;3.10;1.00;;;12.70;99.90;;;;;;5004593;28;20495;-84
2022/06/16 00:05:31;;;;;;;3.10;1.13;;;12.70;99.90;;;;;;5006929;28;20387;-83
2022/06/16 00:07:59;;;;;;;2.17;0.80;;;12.60;99.90;;;;;;5042598;28;20418;-83
2022/06/16 00:10:26;;;;;;;2.83;1.10;;;12.70;99.90;;;;;;5023883;28;20410;-81
2022/06/16 00:12:54;;;;;;;2.08;1.10;;;12.60;99.90;;;;;;5002874;28;20393;-79
2022/06/16 00:15:24;;;;;;;2.40;1.10;;;12.60;99.90;;;;;;5003773;28;20449;-83
2022/06/16 00:17:52;;;;;;;3.90;1.27;;;12.60;99.90;;;;;;5002147;28;20753;-83
2022/06/16 00:20:19;;;;;;;5.85;1.50;;;12.60;99.90;;;;;;5277384;23;20422;-86
2022/06/16 00:22:47;;;;;;;4.93;1.70;;;12.60;99.90;;;;;;4958402;28;20392;-85
2022/06/16 00:25:14;;;;;;;5.70;1.60;;;12.50;99.90;;;;;;4957221;28;20413;-87
2022/06/16 00:27:42;;;;;;;6.60;1.98;;;12.50;99.90;;;;;;4954205;28;20443;-86
2022/06/16 00:30:11;;;;;;;5.53;1.80;;;12.50;99.90;;;;;;4961248;28;20423;-87
2022/06/16 00:32:41;;;;;;;6.47;1.98;;;12.50;99.90;;;;;;4962632;28;20412;-86
2022/06/16 00:35:13;;;;;;;4.67;2.00;;;12.40;99.90;;;;;;4958983;28;20734;-86
2022/06/16 00:37:41;;;;;;;6.35;2.00;;;12.40;99.90;;;;;;4962495;28;20521;-86
2022/06/16 00:40:10;;;;;;;3.22;1.83;;;12.40;99.90;;;;;;4957577;28;20410;-85
2022/06/16 00:42:38;;;;;;;4.40;1.77;;;12.30;99.90;;;;;;4952028;28;20460;-86
2022/06/16 00:45:43;;;;;;;5.38;2.08;;;12.30;99.90;;;;;;4961921;28;20386;-84
2022/06/16 00:48:16;;;;;;;3.40;1.80;;;12.30;99.90;;;;;;4958656;28;20465;-85
2022/06/16 00:50:48;;;;;;;5.05;2.00;;;12.20;99.90;;;;;;4960298;28;20878;-85
2022/06/16 00:53:16;;;;;;;3.72;1.75;;;12.20;99.90;;;;;;4954130;28;20424;-85
2022/06/16 00:55:44;;;;;;;4.50;1.83;;;12.10;99.90;;;;;;4955589;28;20404;-86
2022/06/16 00:58:12;;;;;;;5.38;1.88;;;12.20;99.90;;;;;;4967259;28;20729;-86
2022/06/16 01:00:46;;;;;;;4.70;1.70;;;12.10;99.90;;;;;;4952371;28;20422;-86
2022/06/16 01:04:51;;;;;;;3.70;1.63;;;12.00;99.90;;;;;;4960385;28;20399;-86
2022/06/16 01:06:21;;;;;;;3.42;1.40;;;12.00;99.90;;;;;;4962380;28;20404;-85
2022/06/16 01:08:59;;;;;;;5.75;2.05;;;11.90;99.90;;;;;;4948397;28;20418;-86
2022/06/16 01:14:30;;;;;;;5.03;1.70;;;11.90;99.90;;;;;;4943491;28;20446;-86
2022/06/16 01:17:06;;;;;;;2.20;1.38;;;11.90;99.90;;;;;;4954156;28;20460;-85
2022/06/16 01:20:02;;;;;;;4.05;1.70;;;11.90;99.90;;;;;;4961478;28;20754;-88
2022/06/16 01:23:03;;;;;;;3.47;1.48;;;11.90;99.90;;;;;;4954177;28;20408;-85
2022/06/16 01:26:02;;;;;;;9.82;2.03;;;11.90;99.90;;;;;;4952496;28;20410;-86
2022/06/16 01:28:52;;;;;;;3.67;1.40;;;11.90;99.90;;;;;;4952878;28;20489;-84
2022/06/16 01:31:30;;;;;;;4.20;1.48;;;11.90;99.90;;;;;;4937973;28;20407;-87
2022/06/16 01:34:00;;;;;;;2.38;1.20;;;11.90;99.90;;;;;;4952364;28;20428;-85
2022/06/16 01:36:34;;;;;;;5.03;1.40;;;11.80;99.90;;;;;;4956135;28;20436;-85
2022/06/16 01:39:11;;;;;;;4.70;1.20;;;11.80;99.90;;;;;;4956877;28;20413;-85
2022/06/16 01:41:54;;;;;;;3.10;1.40;;;11.80;99.90;;;;;;4957568;28;20458;-86
2022/06/16 01:45:10;;;;;;;3.33;1.20;;;11.80;99.90;;;;;;4958184;28;20412;-86
2022/06/16 01:47:45;;;;;;;3.17;1.30;;;11.80;99.90;;;;;;4996736;28;20409;-84
2022/06/16 01:50:22;;;;;;;4.00;1.30;;;11.90;99.90;;;;;;4956669;28;20445;-85
2022/06/16 01:53:03;;;;;;;4.00;1.20;;;11.80;99.90;;;;;;4953165;28;20454;-86
2022/06/16 01:55:39;;;;;;;2.70;1.17;;;11.80;99.90;;;;;;4951346;28;20421;-85
2022/06/16 01:58:24;;;;;;;2.80;1.20;;;11.70;99.90;;;;;;4956220;28;20512;-83
2022/06/16 02:00:56;;;;;;;5.45;1.30;;;11.70;99.90;;;;;;4939688;28;20462;-86
2022/06/16 02:03:47;;;;;;;2.72;1.17;;;11.70;99.90;;;;;;4956230;28;20420;-86
2022/06/16 02:06:22;;;;;;;2.60;1.20;;;11.70;99.90;;;;;;4951591;28;20406;-85
2022/06/16 02:09:06;;;;;;;2.13;1.03;;;11.70;99.90;;;;;;4937343;28;20906;-85
2022/06/16 02:11:35;;;;;;;5.07;1.10;;;11.70;99.90;;;;;;4956815;28;20417;-86
2022/06/16 02:14:50;;;;;;;3.67;1.40;;;11.70;99.90;;;;;;4957428;28;20415;-86
2022/06/16 02:17:47;;;;;;;2.90;1.20;;;11.70;99.90;;;;;;4967824;28;20405;-85
2022/06/16 02:20:15;;;;;;;2.95;1.30;;;11.70;99.90;;;;;;4955102;28;20713;-85
2022/06/16 02:22:42;;;;;;;4.43;1.10;;;11.70;99.90;;;;;;4962783;28;20403;-87
2022/06/16 02:25:10;;;;;;;3.38;1.42;;;11.70;99.90;;;;;;4947784;28;20417;-86
2022/06/16 02:27:37;;;;;;;5.10;1.20;;;11.70;99.90;;;;;;4960022;28;20411;-84
2022/06/16 02:30:06;;;;;;;2.10;1.10;;;11.70;99.90;;;;;;4958192;28;20462;-85
2022/06/16 02:33:00;;;;;;;1.92;1.15;;;11.60;99.90;;;;;;4959372;28;20416;-86
2022/06/16 02:35:49;;;;;;;2.55;1.10;;;11.70;99.90;;;;;;4968989;28;20954;-86
2022/06/16 02:38:48;;;;;;;2.28;1.20;;;11.70;99.90;;;;;;4955444;28;20423;-85
2022/06/16 02:41:30;;;;;;;3.15;1.20;;;11.70;99.90;;;;;;4948840;28;20421;-85
2022/06/16 02:44:24;;;;;;;3.60;1.10;;;11.70;99.90;;;;;;4956633;28;20402;-83
2022/06/16 02:47:05;;;;;;;3.10;1.00;;;11.70;99.90;;;;;;4952205;28;20466;-85
2022/06/16 02:49:46;;;;;;;3.23;1.20;;;11.70;99.90;;;;;;4938294;29;20505;-86
2022/06/16 02:52:20;;;;;;;2.53;1.10;;;11.70;99.90;;;;;;4961157;28;20518;-86
2022/06/16 02:55:00;;;;;;;2.80;1.20;;;11.70;99.90;;;;;;4950962;28;20413;-85
2022/06/16 02:58:01;;;;;;;2.90;1.10;;;11.70;99.90;;;;;;4958823;28;20395;-84
2022/06/16 03:00:43;;;;;;;2.25;1.10;;;11.70;99.90;;;;;;4980071;28;20438;-84
2022/06/16 03:03:25;;;;;;;3.10;1.10;;;11.70;99.90;;;;;;4954218;28;20399;-86
2022/06/16 03:06:05;;;;;;;1.90;1.20;;;11.80;99.90;;;;;;4954915;28;20438;-85
2022/06/16 03:08:41;;;;;;;4.78;1.20;;;11.80;99.90;;;;;;4957858;28;20811;-86
2022/06/16 03:11:12;;;;;;;2.35;1.23;;;11.80;99.90;;;;;;4969247;28;20512;-85
2022/06/16 03:13:42;;;;;;;2.80;1.15;;;11.80;99.90;;;;;;4944943;28;20891;-85
2022/06/16 03:16:21;;;;;;;3.10;1.10;;;11.80;99.90;;;;;;4958226;28;20415;-84
2022/06/16 03:18:52;;;;;;;2.13;0.90;;;11.80;99.90;;;;;;4948801;28;20409;-85
2022/06/16 03:21:20;;;;;;;1.80;1.02;;;11.80;99.90;;;;;;4931800;28;20414;-86
2022/06/16 03:23:48;;;;;;;3.72;1.13;;;11.80;99.90;;;;;;4956992;28;20448;-86
2022/06/16 03:26:17;;;;;;;2.42;1.13;;;11.80;99.90;;;;;;4958328;28;20443;-85
2022/06/16 03:28:45;;;;;;;2.88;1.10;;;11.80;99.90;;;;;;4958812;28;20705;-87
2022/06/16 03:31:17;;;;;;;1.98;1.17;;;11.80;99.90;;;;;;4931195;28;20390;-86
2022/06/16 03:33:45;;;;;;;1.73;1.30;;;11.80;99.90;;;;;;4951093;28;20424;-84
2022/06/16 03:36:14;;;;;;;1.87;1.27;;;11.80;99.90;;;;;;4960349;28;20438;-86
2022/06/16 03:38:44;;;;;;;3.20;1.40;;;11.80;99.90;;;;;;4954549;28;20945;-87
2022/06/16 03:41:15;;;;;;;2.90;1.45;;;11.80;99.90;;;;;;4957284;28;20714;-86
2022/06/16 03:43:43;;;;;;;3.13;1.52;;;11.90;99.90;;;;;;4962381;28;20505;-87
2022/06/16 03:46:17;;;;;;;3.25;1.70;;;11.90;99.90;;;;;;4940258;28;20426;-85
2022/06/16 03:48:55;;;;;;;3.65;1.52;;;11.90;99.90;;;;;;4955408;28;20433;-86
2022/06/16 03:51:38;;;;;;;3.25;1.40;;;12.00;99.90;;;;;;4960287;28;20492;-86
2022/06/16 03:54:06;;;;;;;3.90;1.70;;;12.00;99.90;;;;;;4959319;28;20495;-87
2022/06/16 03:56:34;;;;;;;2.83;1.67;;;12.00;99.90;;;;;;4957725;28;20415;-84
2022/06/16 03:59:05;;;;;;;2.35;1.77;;;12.00;99.90;;;;;;4923985;29;20417;-85
2022/06/16 04:01:33;;;;;;;3.20;1.95;;;12.00;99.90;;;;;;4939057;29;20495;-85
2022/06/16 04:04:01;;;;;;;2.83;2.00;;;12.00;99.90;;;;;;4952142;28;20394;-86
2022/06/16 04:06:42;;;;;;;4.75;1.92;;;12.00;99.90;;;;;;4955044;28;20410;-86
2022/06/16 04:09:11;;;;;;;3.67;2.15;;;12.10;99.90;;;;;;4960489;28;20404;-84
2022/06/16 04:11:38;;;;;;;3.35;1.75;;;12.10;99.90;;;;;;4961602;28;20509;-86
2022/06/16 04:14:10;;;;;;;3.33;2.00;;;12.20;99.90;;;;;;4944324;28;20509;-84
2022/06/16 04:16:49;;;;;;;2.90;2.30;;;12.20;99.90;;;;;;4943039;29;20429;-86
2022/06/16 04:19:25;;;;;;;5.10;2.47;;;12.20;99.90;;;;;;4948116;28;20414;-85
2022/06/16 04:21:53;;;;;;;4.22;2.25;;;12.30;99.90;;;;;;4960960;28;20417;-85
2022/06/16 04:24:34;;;;;;;4.45;2.80;;;12.30;99.90;;;;;;4961311;28;20528;-85
2022/06/16 04:27:03;;;;;;;3.70;2.60;;;12.30;99.90;;;;;;4943981;28;20455;-87
2022/06/16 04:29:30;;;;;;;3.85;2.63;;;12.30;99.90;;;;;;4957669;28;21005;-87
2022/06/16 04:31:59;;;;;;;5.60;2.20;;;12.40;99.90;;;;;;4942331;28;20498;-84
2022/06/16 04:34:48;;;;;;;3.72;2.28;;;12.40;99.90;;;;;;4960419;28;20535;-87
2022/06/16 04:37:16;;;;;;;4.93;2.60;;;12.40;99.90;;;;;;4960284;28;20485;-85
2022/06/16 04:39:51;;;;;;;3.55;2.42;;;12.40;99.90;;;;;;4955860;28;20584;-82
2022/06/16 04:42:20;;;;;;;3.10;2.40;;;12.50;99.90;;;;;;4960369;28;20642;-85
2022/06/16 04:44:48;;;;;;;3.20;2.10;;;12.50;99.90;;;;;;4957645;28;20405;-86
2022/06/16 04:47:17;;;;;;;3.53;2.40;;;12.60;99.90;;;;;;4954355;28;20425;-86
2022/06/16 04:49:48;;;;;;;4.75;2.38;;;12.60;99.90;;;;;;4964941;28;20411;-85
2022/06/16 04:52:17;;;;;;;5.60;2.53;;;12.60;99.90;;;;;;4941703;28;20421;-85
2022/06/16 04:54:50;;;;;;;4.20;2.63;;;12.60;99.90;;;;;;4952254;28;20408;-87
2022/06/16 04:57:45;;;;;;;3.70;2.40;;;12.70;99.90;;;;;;4949870;28;20405;-86
2022/06/16 05:00:20;;;;;;;6.60;2.50;;;12.70;99.90;;;;;;4940556;29;20401;-86
2022/06/16 05:03:14;;;;;;;3.35;2.13;;;12.70;99.90;;;;;;4944030;28;20410;-86
2022/06/16 05:06:02;;;;;;;3.35;2.25;;;12.80;99.90;;;;;;4951361;28;20410;-87
2022/06/16 05:08:39;;;;;;;4.65;2.25;;;12.80;99.90;;;;;;4958939;28;20402;-87
2022/06/16 05:11:30;;;;;;;3.33;2.40;;;12.80;99.90;;;;;;4954717;28;20393;-87
2022/06/16 05:14:21;;;;;;;3.08;2.05;;;12.90;99.90;;;;;;4959485;28;20400;-85
2022/06/16 05:16:53;;;;;;;3.00;1.73;;;13.00;99.90;;;;;;4958235;28;20416;-86
2022/06/16 05:19:41;;;;;;;3.28;2.10;;;13.00;99.90;;;;;;4959520;28;20426;-87
2022/06/16 05:22:35;;;;;;;3.40;2.00;;;13.10;99.90;;;;;;4954885;28;20425;-85
2022/06/16 05:25:21;;;;;;;3.47;1.70;;;13.20;99.90;;;;;;4958378;28;20494;-84
2022/06/16 05:28:03;;;;;;;3.13;2.20;;;13.20;99.90;;;;;;4953339;28;20421;-84
2022/06/16 05:31:03;;;;;;;4.00;1.90;;;13.30;99.90;;;;;;4950475;28;20462;-85
2022/06/16 05:33:36;;;;;;;2.92;1.90;;;13.50;99.90;;;;;;4961639;28;20858;-84
2022/06/16 05:36:23;;;;;;;3.83;1.92;;;13.50;99.90;;;;;;4964667;28;20539;-84
2022/06/16 05:38:57;;;;;;;2.28;1.92;;;13.40;99.90;;;;;;4966086;28;20424;-80
2022/06/16 05:41:31;;;;;;;3.15;1.88;;;13.50;99.90;;;;;;4967195;28;20467;-80
2022/06/16 05:44:19;;;;;;;3.47;1.80;;;13.50;99.90;;;;;;4972582;28;20890;-81
2022/06/16 05:47:00;;;;;;;3.95;1.75;;;13.60;99.90;;;;;;4966120;28;20415;-83
2022/06/16 05:49:38;;;;;;;3.08;1.80;;;13.60;99.90;;;;;;4973215;28;20418;-81
2022/06/16 05:52:11;;;;;;;2.22;1.40;;;13.70;99.90;;;;;;4968974;28;20433;-81
2022/06/16 05:54:43;;;;;;;2.65;1.75;;;13.70;99.90;;;;;;4963300;28;20424;-80
2022/06/16 05:57:11;;;;;;;4.43;1.73;;;13.80;99.90;;;;;;4967126;28;20420;-82
2022/06/16 05:59:39;;;;;;;2.90;1.80;;;13.80;99.90;;;;;;4977856;28;20493;-81
2022/06/16 06:02:15;;;;;;;2.95;1.50;;;13.90;99.90;;;;;;4966857;28;20861;-83
2022/06/16 06:04:44;;;;;;;2.80;1.60;;;13.80;99.90;;;;;;4947789;28;20403;-82
2022/06/16 06:07:12;;;;;;;3.80;1.52;;;13.90;99.90;;;;;;4970303;28;20395;-82
2022/06/16 06:17:43;;;;;;;3.10;1.50;;;14.00;99.90;;;;;;4958999;28;20482;-81
2022/06/16 06:20:12;;;;;;;2.05;1.60;;;14.10;99.90;;;;;;4972526;28;20410;-81
2022/06/16 06:22:43;;;;;;;2.15;1.60;;;14.10;99.90;;;;;;4966786;28;20431;-81
2022/06/16 06:25:13;;;;;;;3.10;1.40;;;14.20;99.90;;;;;;4969400;28;20444;-82
2022/06/16 06:27:45;;;;;;;1.98;1.40;;;14.30;99.90;;;;;;4969238;28;20939;-79
2022/06/16 06:30:19;;;;;;;2.55;1.52;;;14.40;99.90;;;;;;4965509;28;20415;-83
2022/06/16 06:32:47;;;;;;;3.45;1.40;;;14.30;99.90;;;;;;4966240;28;20408;-82
2022/06/16 06:35:19;;;;;;;2.35;1.52;;;14.40;99.90;;;;;;4950252;29;20418;-80
2022/06/16 06:37:48;;;;;;;2.65;1.50;;;14.40;99.90;;;;;;4971912;28;20411;-80
2022/06/16 06:40:30;;;;;;;3.80;1.60;;;14.40;99.90;;;;;;4947002;29;20410;-80
2022/06/16 06:42:59;;;;;;;2.03;1.40;;;14.60;99.90;;;;;;4963487;28;20429;-82
2022/06/16 06:45:27;;;;;;;2.60;1.48;;;14.60;99.90;;;;;;4970750;28;20417;-82
2022/06/16 06:47:55;;;;;;;2.42;1.40;;;14.60;99.90;;;;;;4972262;28;20408;-80
2022/06/16 06:50:26;;;;;;;1.67;1.35;;;14.80;99.90;;;;;;4960852;28;20664;-80
2022/06/16 06:52:55;;;;;;;3.20;1.40;;;15.10;99.90;;;;;;4959854;28;20431;-82
2022/06/16 06:55:23;;;;;;;2.80;1.50;;;15.10;99.90;;;;;;4951755;28;20416;-82
2022/06/16 06:57:52;;;;;;;1.52;1.30;;;15.10;99.90;;;;;;4961264;28;20412;-84
2022/06/16 07:00:22;;;;;;;2.37;1.33;;;15.20;99.90;;;;;;4956904;28;20396;-82
2022/06/16 07:02:49;;;;;;;2.60;1.60;;;15.30;99.90;;;;;;4958515;28;20400;-80
2022/06/16 07:05:17;;;;;;;2.20;1.35;;;15.30;99.90;;;;;;4961365;28;20418;-82
2022/06/16 07:07:47;;;;;;;2.50;1.48;;;15.40;99.90;;;;;;4961453;28;20442;-80
2022/06/16 07:10:17;;;;;;;2.40;1.30;;;15.30;99.90;;;;;;4959748;28;20411;-80
2022/06/16 07:12:45;;;;;;;2.60;1.40;;;15.40;99.90;;;;;;4958451;28;20406;-83
2022/06/16 07:15:13;;;;;;;2.10;1.20;;;15.40;99.90;;;;;;4955857;28;20898;-84
2022/06/16 07:17:41;;;;;;;2.33;1.20;;;15.50;99.90;;;;;;4961137;28;20444;-80
2022/06/16 07:20:10;;;;;;;3.40;1.30;;;15.50;99.90;;;;;;4960704;28;20424;-83
2022/06/16 07:22:37;;;;;;;4.22;1.42;;;15.50;99.90;;;;;;4952306;28;20422;-84
2022/06/16 07:25:05;;;;;;;2.90;1.30;;;15.50;99.90;;;;;;4954060;28;20398;-84
2022/06/16 07:27:33;;;;;;;4.05;1.40;;;15.60;99.90;;;;;;4956224;28;20497;-87
2022/06/16 07:30:01;;;;;;;3.20;1.50;;;15.80;99.90;;;;;;4964537;28;20416;-86
2022/06/16 07:32:28;;;;;;;2.92;1.30;;;15.70;99.90;;;;;;4965370;28;20410;-87
2022/06/16 07:34:56;;;;;;;2.53;1.50;;;15.80;99.90;;;;;;4965428;28;20410;-86
2022/06/16 07:37:23;;;;;;;1.63;1.20;;;15.90;99.90;;;;;;4962933;28;20438;-87
2022/06/16 07:39:51;;;;;;;1.75;1.35;;;15.90;99.90;;;;;;4964567;28;20394;-80
2022/06/16 07:42:19;;;;;;;1.98;1.20;;;16.00;99.90;;;;;;4954907;28;20403;-87
2022/06/16 07:44:46;;;;;;;3.55;1.30;;;16.10;99.90;;;;;;4955347;28;20404;-87
2022/06/16 07:47:15;;;;;;;2.80;1.30;;;16.20;99.90;;;;;;4959607;28;20414;-84
2022/06/16 07:49:48;;;;;;;1.83;1.30;;;16.30;99.90;;;;;;4964583;28;20411;-88
2022/06/16 07:52:17;;;;;;;1.90;1.20;;;16.20;99.90;;;;;;4947315;28;20401;-87
2022/06/16 07:54:44;;;;;;;5.38;1.38;;;16.20;99.90;;;;;;4955047;28;20417;-86
2022/06/16 07:57:21;;;;;;;2.30;1.27;;;16.10;99.90;;;;;;4942345;29;20414;-85
2022/06/16 07:59:57;;;;;;;3.33;1.40;;;16.30;99.90;;;;;;4950968;28;20393;-86
2022/06/16 08:02:27;;;;;;;1.88;1.10;;;16.30;99.90;;;;;;4959455;28;20845;-85
2022/06/16 08:04:55;;;;;;;2.90;1.23;;;16.30;99.90;;;;;;4953682;28;20460;-87
2022/06/16 08:07:22;;;;;;;1.65;1.20;;;16.20;99.90;;;;;;4961067;28;20490;-87
2022/06/16 08:09:51;;;;;;;2.90;1.30;;;16.20;99.90;;;;;;4953853;28;20923;-86
2022/06/16 08:12:20;;;;;;;2.75;1.35;;;16.30;99.90;;;;;;4953945;28;20963;-86
2022/06/16 08:14:48;;;;;;;2.13;1.20;;;16.40;99.90;;;;;;4963536;28;20433;-85
2022/06/16 08:17:30;;;;;;;2.92;1.40;;;16.50;99.90;;;;;;4956312;28;20973;-87
2022/06/16 08:19:59;;;;;;;1.90;1.20;;;16.50;99.90;;;;;;4955883;28;20415;-86
2022/06/16 08:22:27;;;;;;;2.05;1.10;;;16.60;99.90;;;;;;4958822;28;20415;-85
2022/06/16 08:24:55;;;;;;;3.75;1.25;;;16.60;99.90;;;;;;4958853;28;20408;-85
2022/06/16 08:27:27;;;;;;;3.03;1.35;;;16.50;99.90;;;;;;4955459;28;20441;-87
2022/06/16 08:29:55;;;;;;;2.03;1.30;;;16.60;99.90;;;;;;4961811;28;20411;-87
2022/06/16 08:32:23;;;;;;;2.00;1.17;;;16.50;99.90;;;;;;4961257;28;20407;-86
2022/06/16 08:34:51;;;;;;;4.97;1.40;;;16.50;99.90;;;;;;4955764;28;20470;-86
2022/06/16 08:37:21;;;;;;;2.33;1.40;;;16.60;99.90;;;;;;4961409;28;20410;-86
2022/06/16 08:39:49;;;;;;;3.40;1.10;;;16.70;99.90;;;;;;4964378;28;20418;-84
2022/06/16 08:42:28;;;;;;;1.52;1.08;;;16.80;99.90;;;;;;4960871;28;20806;-87
2022/06/16 08:45:14;;;;;;;3.05;1.20;;;16.90;99.90;;;;;;4954956;28;20390;-87
2022/06/16 08:48:07;;;;;;;2.10;1.10;;;16.90;99.90;;;;;;4955273;28;20386;-87
2022/06/16 08:50:45;;;;;;;1.60;1.23;;;16.90;99.90;;;;;;4959519;28;20533;-85
2022/06/16 08:53:18;;;;;;;2.70;1.50;;;17.00;99.90;;;;;;4955377;28;20866;-84
2022/06/16 08:56:13;;;;;;;4.07;2.00;;;16.90;99.90;;;;;;4940915;29;20416;-85
2022/06/16 08:59:09;;;;;;;3.00;1.47;;;17.00;99.90;;;;;;4961384;28;20415;-85
2022/06/16 09:02:03;;;;;;;3.92;1.45;;;17.30;99.90;;;;;;4963074;28;20428;-86
2022/06/16 09:04:36;;;;;;;1.95;1.50;;;17.10;99.90;;;;;;4959047;28;20452;-85
2022/06/16 09:07:41;;;;;;;2.30;1.58;;;17.10;99.90;;;;;;4937778;28;20399;-86
2022/06/16 09:10:37;;;;;;;1.75;1.20;;;17.10;99.90;;;;;;4959847;28;20398;-85
2022/06/16 09:13:11;;;;;;;2.22;1.10;;;17.30;99.90;;;;;;4958829;28;20412;-86
2022/06/16 09:16:00;;;;;;;1.87;1.20;;;17.40;99.90;;;;;;4959650;28;20420;-87
2022/06/16 09:18:46;;;;;;;2.85;1.35;;;17.30;99.90;;;;;;4949054;28;20410;-85
2022/06/16 09:21:41;;;;;;;3.17;1.60;;;17.40;99.90;;;;;;4960144;28;20412;-85
2022/06/16 09:24:27;;;;;;;2.28;1.20;;;17.40;99.90;;;;;;4960238;28;20418;-85
2022/06/16 09:27:07;;;;;;;3.37;1.17;;;17.50;99.90;;;;;;4954837;28;20815;-87
2022/06/16 09:29:54;;;;;;;1.70;1.20;;;17.70;99.90;;;;;;4946515;28;20410;-87
2022/06/16 09:32:30;;;;;;;2.60;1.10;;;17.70;99.90;;;;;;4955478;28;20406;-85
2022/06/16 09:35:05;;;;;;;2.40;1.42;;;17.70;99.90;;;;;;4948176;28;20417;-85
2022/06/16 09:37:41;;;;;;;3.15;1.60;;;17.70;99.90;;;;;;4951300;28;20422;-86
2022/06/16 09:40:14;;;;;;;2.03;1.33;;;17.70;99.90;;;;;;4928117;28;20898;-86
2022/06/16 09:42:54;;;;;;;2.80;1.30;;;17.60;99.90;;;;;;4950199;28;20402;-86
2022/06/16 09:45:31;;;;;;;3.13;1.50;;;17.40;99.90;;;;;;4938941;28;20432;-86
2022/06/16 09:48:04;;;;;;;4.57;1.40;;;17.50;99.90;;;;;;4941981;28;20558;-85
2022/06/16 09:51:19;;;;;;;1.85;1.30;;;17.70;99.90;;;;;;4942715;28;21018;-85
2022/06/16 09:54:14;;;;;;;2.13;1.40;;;17.80;99.90;;;;;;4952709;28;20406;-86
2022/06/16 09:56:47;;;;;;;1.93;1.50;;;17.90;99.90;;;;;;4954597;28;20452;-86
2022/06/16 09:59:30;;;;;;;2.05;1.40;;;17.90;99.90;;;;;;4961598;28;20471;-86
2022/06/16 10:02:04;;;;;;;5.23;1.77;;;17.90;99.90;;;;;;4954724;28;20517;-84
2022/06/16 10:04:32;;;;;;;2.90;1.70;;;17.90;99.90;;;;;;4962454;28;20959;-87
2022/06/16 10:07:21;;;;;;;3.55;1.60;;;17.80;99.90;;;;;;4971460;28;20487;-87
2022/06/16 10:10:00;;;;;;;2.83;1.77;;;17.90;99.90;;;;;;4953047;28;20800;-86
2022/06/16 10:12:51;;;;;;;2.95;1.80;;;18.20;99.90;;;;;;4960008;28;20414;-86
2022/06/16 10:15:36;;;;;;;3.45;1.80;;;18.10;99.90;;;;;;4953566;28;20558;-85
2022/06/16 10:18:06;;;;;;;4.53;2.00;;;18.20;99.90;;;;;;4965857;28;20489;-86
2022/06/16 10:20:35;;;;;;;4.28;1.70;;;18.20;99.90;;;;;;4956828;28;20404;-85
2022/06/16 10:23:13;;;;;;;3.85;1.60;;;18.30;99.90;;;;;;4956285;28;20881;-85
2022/06/16 10:26:04;;;;;;;2.80;1.75;;;18.40;99.90;;;;;;4956382;28;20408;-85
2022/06/16 10:28:44;;;;;;;3.60;1.50;;;18.50;99.90;;;;;;4930549;28;20904;-86
2022/06/16 10:31:32;;;;;;;2.20;1.50;;;18.60;99.90;;;;;;4959382;28;20391;-85
2022/06/16 10:34:01;;;;;;;3.10;1.30;;;18.50;99.90;;;;;;4951304;28;20881;-86
2022/06/16 10:36:30;;;;;;;4.13;1.40;;;18.50;99.90;;;;;;4958682;28;20408;-87
2022/06/16 10:39:22;;;;;;;3.28;1.60;;;18.50;99.90;;;;;;4965892;28;20413;-85
2022/06/16 10:42:00;;;;;;;3.58;1.48;;;18.70;99.90;;;;;;4951839;28;20398;-85
2022/06/16 10:44:29;;;;;;;4.65;1.50;;;18.70;99.90;;;;;;4948592;28;20475;-83
2022/06/16 10:47:01;;;;;;;3.70;1.73;;;18.70;99.90;;;;;;4966313;28;20512;-85
2022/06/16 10:49:33;;;;;;;3.72;1.40;;;18.60;99.90;;;;;;4956161;28;21080;-84
2022/06/16 10:52:22;;;;;;;2.50;1.73;;;18.70;99.90;;;;;;4947080;28;20412;-84
2022/06/16 10:55:20;;;;;;;2.22;1.48;;;18.60;99.90;;;;;;4949879;28;20416;-84
2022/06/16 10:58:15;;;;;;;2.33;1.35;;;18.80;99.90;;;;;;4951832;28;20424;-84
2022/06/16 11:00:58;;;;;;;3.53;1.60;;;18.90;99.90;;;;;;4936892;28;20406;-84
2022/06/16 11:03:25;;;;;;;2.38;1.58;;;18.80;99.90;;;;;;4949331;28;20776;-84
2022/06/16 11:05:57;;;;;;;3.73;1.70;;;18.80;99.90;;;;;;4951545;28;20413;-83
2022/06/16 11:08:34;;;;;;;3.72;1.60;;;18.90;99.90;;;;;;4962132;28;20892;-83
2022/06/16 11:11:45;;;;;;;5.30;2.00;;;19.00;99.90;;;;;;4951626;28;20410;-84
2022/06/16 11:14:18;;;;;;;3.92;1.80;;;19.00;99.90;;;;;;4958783;28;20986;-84
2022/06/16 11:16:50;;;;;;;3.13;1.75;;;19.00;99.90;;;;;;4953884;28;20407;-85
2022/06/16 11:19:34;;;;;;;2.50;1.45;;;19.00;99.90;;;;;;4934942;28;20789;-84
2022/06/16 11:22:26;;;;;;;4.10;1.60;;;19.10;99.90;;;;;;4957083;28;20458;-84
2022/06/16 11:25:19;;;;;;;2.58;1.48;;;19.40;99.90;;;;;;4957345;28;20400;-85
2022/06/16 11:27:50;;;;;;;2.83;1.20;;;19.30;99.90;;;;;;4969748;28;20423;-85
2022/06/16 11:30:35;;;;;;;3.03;1.23;;;19.30;99.90;;;;;;4956912;28;20407;-84
2022/06/16 11:33:06;;;;;;;4.90;1.30;;;19.20;99.90;;;;;;4959128;28;20487;-83
2022/06/16 11:35:44;;;;;;;2.90;1.40;;;19.30;99.90;;;;;;4947067;28;20836;-84
2022/06/16 11:38:23;;;;;;;4.57;1.33;;;19.40;99.90;;;;;;4949835;28;20481;-84
2022/06/16 11:40:59;;;;;;;3.45;1.38;;;19.40;99.90;;;;;;4948498;28;20404;-84
2022/06/16 11:44:05;;;;;;;3.40;1.38;;;19.40;99.90;;;;;;4949312;28;20409;-84
2022/06/16 11:46:43;;;;;;;4.43;1.55;;;19.40;99.90;;;;;;4957736;28;20397;-83
2022/06/16 11:49:30;;;;;;;5.75;1.40;;;19.50;99.90;;;;;;4941052;28;20417;-83
2022/06/16 11:52:19;;;;;;;3.70;1.63;;;19.70;99.90;;;;;;4939573;29;20412;-83
2022/06/16 11:54:55;;;;;;;4.60;1.50;;;19.70;99.90;;;;;;4953942;28;20405;-85
2022/06/16 11:57:37;;;;;;;5.10;1.75;;;19.60;99.90;;;;;;4940820;28;20418;-84
2022/06/16 12:00:34;;;;;;;3.97;1.67;;;19.60;99.90;;;;;;4946396;28;20406;-83
2022/06/16 12:03:42;;;;;;;4.97;1.60;;;19.70;99.90;;;;;;4935415;28;20400;-84
2022/06/16 12:06:25;;;;;;;5.32;1.50;;;19.70;99.90;;;;;;4946397;28;20416;-86
2022/06/16 12:09:20;;;;;;;3.92;1.52;;;19.60;99.90;;;;;;4953259;28;20412;-83
2022/06/16 12:12:16;;;;;;;5.22;1.70;;;19.60;99.90;;;;;;4941058;28;20455;-84
2022/06/16 12:15:03;;;;;;;4.47;1.50;;;19.90;99.90;;;;;;4940504;28;20457;-84
2022/06/16 12:17:48;;;;;;;2.78;1.48;;;20.00;99.90;;;;;;4943553;28;20426;-82
2022/06/16 12:20:48;;;;;;;4.00;1.50;;;20.00;99.90;;;;;;4941211;28;20426;-84
2022/06/16 12:23:30;;;;;;;4.00;1.40;;;20.00;99.90;;;;;;4945158;28;20764;-83
2022/06/16 12:26:21;;;;;;;4.68;1.67;;;19.70;99.90;;;;;;4948546;28;20390;-85
2022/06/16 12:28:48;;;;;;;4.30;1.50;;;19.70;99.90;;;;;;4939222;28;20444;-83
2022/06/16 12:31:38;;;;;;;4.43;2.05;;;19.60;99.90;;;;;;4945498;28;20402;-84
2022/06/16 12:34:21;;;;;;;6.22;2.08;;;19.40;99.90;;;;;;4941930;28;20396;-84
2022/06/16 12:41:09;;;;;;;6.45;1.75;;;19.90;99.90;;;;;;4962579;28;20378;-85
2022/06/16 12:43:42;;;;;;;4.03;1.60;;;19.80;99.90;;;;;;4966609;28;20410;-85
2022/06/16 12:46:38;;;;;;;4.33;1.70;;;19.80;99.90;;;;;;4960335;28;20413;-84
2022/06/16 12:49:11;;;;;;;4.15;1.52;;;19.90;99.90;;;;;;4961323;28;20421;-83
2022/06/16 12:51:45;;;;;;;3.17;1.60;;;20.00;99.90;;;;;;4959236;28;20413;-84
2022/06/16 12:54:23;;;;;;;5.88;1.80;;;20.00;99.90;;;;;;4960436;28;20406;-85
2022/06/16 12:56:57;;;;;;;4.80;1.85;;;19.80;99.90;;;;;;4960579;28;20468;-83
2022/06/16 12:59:35;;;;;;;4.55;1.88;;;19.90;99.90;;;;;;4955167;28;20458;-84
2022/06/16 13:02:06;;;;;;;5.95;1.70;;;20.20;99.90;;;;;;4957166;28;20418;-83
2022/06/16 13:04:35;;;;;;;5.10;1.77;;;20.30;99.90;;;;;;4962567;28;20392;-83
2022/06/16 13:07:12;;;;;;;5.05;1.70;;;20.30;99.90;;;;;;4934363;28;20422;-84
2022/06/16 13:09:42;;;;;;;3.67;1.83;;;20.10;99.90;;;;;;4960496;28;20420;-84
2022/06/16 13:12:21;;;;;;;4.22;1.83;;;20.30;99.90;;;;;;4956798;28;20410;-84
2022/06/16 13:15:09;;;;;;;9.57;1.80;;;20.30;99.90;;;;;;4959475;28;20920;-85
2022/06/16 13:17:45;;;;;;;4.07;1.70;;;20.40;99.90;;;;;;4960895;28;20414;-84
2022/06/16 13:20:15;;;;;;;4.35;1.70;;;20.40;99.90;;;;;;4940339;28;20419;-84
2022/06/16 13:22:48;;;;;;;5.93;1.98;;;20.40;99.90;;;;;;4958472;28;20421;-84
2022/06/16 13:25:42;;;;;;;4.88;1.70;;;20.40;99.90;;;;;;4945394;28;20393;-84
2022/06/16 13:28:39;;;;;;;4.28;1.67;;;20.30;99.90;;;;;;4958920;28;20414;-84
2022/06/16 13:31:09;;;;;;;4.53;1.50;;;20.30;99.90;;;;;;4962909;28;20819;-84
2022/06/16 13:33:49;;;;;;;2.27;1.40;;;20.20;99.90;;;;;;4952111;28;20410;-84
2022/06/16 13:36:23;;;;;;;4.77;1.40;;;20.30;99.90;;;;;;4961719;28;20418;-83
2022/06/16 13:38:53;;;;;;;2.42;1.50;;;20.30;99.90;;;;;;4954020;28;20980;-82
2022/06/16 13:41:42;;;;;;;7.15;1.70;;;20.30;99.90;;;;;;4954955;28;20804;-84
2022/06/16 13:44:29;;;;;;;3.08;1.40;;;20.20;99.90;;;;;;4958800;28;20410;-84
2022/06/16 13:46:56;;;;;;;3.70;1.30;;;20.20;99.90;;;;;;4954100;28;20406;-84
2022/06/16 13:49:30;;;;;;;3.45;1.50;;;20.20;99.90;;;;;;4953670;28;20464;-83
2022/06/16 13:52:12;;;;;;;3.28;1.38;;;20.10;99.90;;;;;;4955975;28;20428;-84
2022/06/16 13:54:41;;;;;;;4.50;1.48;;;20.20;99.90;;;;;;4945947;28;20447;-82